Time;durP1;ratioP1;P1;durP2;ratioP2;P2;SDS_P1;SDS_P2;PMS_P1;PMS_P2;Temp;Humidity;BMP_temperature;BMP_pressure;BME280_temperature;BME280_humidity;BME280_pressure;Samples;Min_cycle;Max_cycle;Signal;HPM_P1;HPM_P2
2022/02/27 00:02:05;;;;;;;2.50;1.20;;;7.30;1.00;;;;;;5087207;28;20458;-78
2022/02/27 00:04:35;;;;;;;4.50;1.50;;;7.30;1.00;;;;;;5088611;28;21146;-77
2022/02/27 00:07:04;;;;;;;2.83;1.30;;;7.30;1.10;;;;;;5087114;28;21200;-76
2022/02/27 00:09:33;;;;;;;3.60;1.23;;;7.20;1.00;;;;;;5084433;28;20805;-78
2022/02/27 00:12:01;;;;;;;1.50;0.97;;;7.20;1.00;;;;;;5076653;28;20487;-78
2022/02/27 00:14:29;;;;;;;3.50;1.20;;;7.20;1.00;;;;;;5083951;28;20485;-78
2022/02/27 00:16:57;;;;;;;4.83;1.60;;;7.50;1.00;;;;;;5082311;28;20967;-77
2022/02/27 00:19:25;;;;;;;2.13;1.23;;;7.10;1.00;;;;;;5090142;28;20475;-78
2022/02/27 00:21:55;;;;;;;3.30;1.20;;;7.10;1.00;;;;;;5089926;28;20438;-79
2022/02/27 00:24:23;;;;;;;1.30;1.20;;;7.10;1.00;;;;;;5099263;28;20473;-78
2022/02/27 00:26:51;;;;;;;2.40;1.10;;;7.10;1.70;;;;;;5087234;28;20489;-78
2022/02/27 00:29:19;;;;;;;1.40;1.30;;;7.10;2.40;;;;;;5088546;28;21258;-77
2022/02/27 00:31:48;;;;;;;5.40;1.20;;;7.00;1.50;;;;;;5085139;28;20454;-77
2022/02/27 00:34:17;;;;;;;4.30;1.37;;;7.00;1.80;;;;;;5083977;28;20848;-77
2022/02/27 00:36:49;;;;;;;3.90;1.30;;;7.00;1.90;;;;;;5088570;28;20450;-78
2022/02/27 00:39:20;;;;;;;2.40;1.97;;;7.10;1.80;;;;;;5089693;28;20543;-76
2022/02/27 00:41:49;;;;;;;2.63;1.20;;;7.00;1.70;;;;;;5088450;28;20454;-76
2022/02/27 00:44:17;;;;;;;2.10;1.20;;;7.00;1.70;;;;;;5090519;28;20476;-77
2022/02/27 00:46:45;;;;;;;2.43;1.17;;;7.00;1.70;;;;;;5086965;28;20501;-77
2022/02/27 00:49:14;;;;;;;4.23;1.37;;;6.90;1.00;;;;;;5085639;28;20465;-76
2022/02/27 00:51:42;;;;;;;9.73;1.83;;;7.00;2.20;;;;;;5084682;28;20951;-76
2022/02/27 00:54:10;;;;;;;1.60;1.03;;;7.00;2.70;;;;;;5085745;28;20478;-76
2022/02/27 00:56:40;;;;;;;3.17;1.20;;;7.00;13.20;;;;;;5084673;28;20438;-77
2022/02/27 00:59:08;;;;;;;2.07;1.10;;;7.00;2.50;;;;;;5081776;28;20454;-78
2022/02/27 01:01:37;;;;;;;3.93;1.30;;;7.00;2.90;;;;;;5089981;28;20450;-77
2022/02/27 01:04:05;;;;;;;2.63;1.30;;;7.30;3.10;;;;;;5085211;28;20471;-78
2022/02/27 01:06:33;;;;;;;3.43;1.50;;;6.90;3.40;;;;;;5088740;28;20484;-78
2022/02/27 01:09:01;;;;;;;3.87;1.00;;;6.90;3.10;;;;;;5087551;28;20978;-78
2022/02/27 01:11:32;;;;;;;4.13;1.60;;;6.90;3.40;;;;;;5088912;28;20454;-77
2022/02/27 01:14:02;;;;;;;2.83;1.00;;;6.90;5.10;;;;;;5088626;28;20543;-78
2022/02/27 01:16:31;;;;;;;2.60;1.20;;;6.90;3.20;;;;;;5089658;28;20438;-77
2022/02/27 01:18:59;;;;;;;2.50;1.00;;;6.90;2.60;;;;;;5085793;28;20462;-77
2022/02/27 01:21:27;;;;;;;4.73;1.47;;;6.80;3.50;;;;;;5089215;28;20499;-78
2022/02/27 01:23:56;;;;;;;3.30;1.00;;;6.90;3.60;;;;;;5088371;28;20469;-78
2022/02/27 01:26:25;;;;;;;2.00;1.07;;;6.80;3.20;;;;;;5088780;28;20470;-77
2022/02/27 01:28:53;;;;;;;3.40;1.20;;;7.00;3.40;;;;;;5085538;28;20473;-77
2022/02/27 01:31:22;;;;;;;2.30;1.10;;;6.80;4.60;;;;;;5089274;28;20457;-77
2022/02/27 01:33:51;;;;;;;2.60;1.00;;;6.80;4.80;;;;;;5090448;28;20604;-78
2022/02/27 01:36:19;;;;;;;3.07;1.23;;;6.80;5.30;;;;;;5087566;28;20541;-77
2022/02/27 01:38:47;;;;;;;2.53;1.43;;;7.10;5.70;;;;;;5082427;28;20451;-76
2022/02/27 01:41:15;;;;;;;3.97;1.60;;;7.20;6.10;;;;;;5087629;28;20470;-78
2022/02/27 01:43:44;;;;;;;4.53;1.40;;;6.90;6.00;;;;;;5082475;28;20893;-77
2022/02/27 01:46:14;;;;;;;3.40;1.40;;;6.80;6.60;;;;;;5088778;28;20522;-78
2022/02/27 01:48:44;;;;;;;1.20;1.03;;;6.80;5.80;;;;;;5084542;28;20460;-77
2022/02/27 01:51:12;;;;;;;4.30;1.30;;;6.80;5.40;;;;;;5086722;28;20952;-77
2022/02/27 01:53:41;;;;;;;8.07;1.23;;;6.70;5.40;;;;;;5091376;28;20477;-77
2022/02/27 01:56:09;;;;;;;1.10;0.93;;;6.80;7.40;;;;;;5082975;28;20450;-77
2022/02/27 01:58:37;;;;;;;4.37;1.13;;;6.70;7.40;;;;;;5081576;28;20458;-78
2022/02/27 02:01:05;;;;;;;2.53;1.03;;;6.80;7.80;;;;;;5084629;28;20453;-77
2022/02/27 02:03:34;;;;;;;1.93;1.67;;;6.70;7.50;;;;;;5084419;28;20470;-77
2022/02/27 02:06:03;;;;;;;3.83;1.57;;;6.70;7.60;;;;;;5081148;28;20446;-78
2022/02/27 02:08:32;;;;;;;2.17;1.10;;;6.70;7.80;;;;;;5077247;28;20462;-77
2022/02/27 02:11:01;;;;;;;3.50;1.20;;;6.60;7.60;;;;;;5085679;28;20549;-78
2022/02/27 02:13:29;;;;;;;4.10;1.30;;;6.60;7.70;;;;;;5081280;28;21097;-77
2022/02/27 02:15:57;;;;;;;2.53;2.07;;;6.60;7.70;;;;;;5084608;28;20504;-77
2022/02/27 02:18:25;;;;;;;3.90;1.40;;;6.90;8.60;;;;;;5080575;28;20484;-77
2022/02/27 02:20:55;;;;;;;2.13;1.27;;;6.70;9.70;;;;;;5079789;28;20528;-77
2022/02/27 02:23:23;;;;;;;7.43;1.53;;;6.90;21.00;;;;;;5078171;28;20473;-76
2022/02/27 02:25:51;;;;;;;3.13;1.50;;;6.60;9.50;;;;;;5080783;28;20495;-77
2022/02/27 02:28:21;;;;;;;5.23;1.70;;;6.70;20.40;;;;;;5074624;28;20489;-77
2022/02/27 02:30:51;;;;;;;2.90;1.50;;;6.70;9.30;;;;;;5078223;28;21240;-77
2022/02/27 02:33:19;;;;;;;4.10;1.90;;;6.70;9.80;;;;;;5081016;28;20581;-78
2022/02/27 02:35:48;;;;;;;2.63;1.20;;;6.60;10.10;;;;;;5082578;28;20473;-78
2022/02/27 02:38:17;;;;;;;1.87;1.10;;;6.70;9.30;;;;;;5078517;28;20537;-78
2022/02/27 02:40:45;;;;;;;7.63;1.47;;;6.60;9.80;;;;;;5087335;28;20981;-79
2022/02/27 02:43:16;;;;;;;7.03;1.60;;;6.60;10.20;;;;;;5082951;28;20455;-78
2022/02/27 02:45:44;;;;;;;3.17;1.10;;;6.60;9.40;;;;;;5090866;28;20458;-78
2022/02/27 02:48:12;;;;;;;3.37;1.37;;;6.60;9.50;;;;;;5087696;28;20557;-77
2022/02/27 02:50:40;;;;;;;2.13;1.60;;;6.60;10.60;;;;;;5087725;28;20546;-78
2022/02/27 02:53:08;;;;;;;1.70;1.30;;;6.60;9.90;;;;;;5085310;28;20514;-78
2022/02/27 02:55:38;;;;;;;1.40;1.10;;;6.60;21.30;;;;;;5089375;28;20505;-77
2022/02/27 02:58:06;;;;;;;3.13;1.30;;;6.60;10.90;;;;;;5086004;28;20446;-78
2022/02/27 03:00:35;;;;;;;2.10;1.50;;;6.60;10.90;;;;;;5090854;28;20458;-78
2022/02/27 03:03:04;;;;;;;4.80;1.70;;;6.60;11.10;;;;;;5085391;28;20437;-78
2022/02/27 03:05:32;;;;;;;3.37;1.57;;;6.60;10.70;;;;;;5082456;28;20458;-78
2022/02/27 03:08:02;;;;;;;2.07;1.60;;;6.40;10.60;;;;;;5080485;28;20476;-78
2022/02/27 03:10:30;;;;;;;1.83;1.17;;;6.50;10.70;;;;;;5083009;28;20459;-78
2022/02/27 03:13:00;;;;;;;6.93;1.50;;;6.50;11.20;;;;;;5087546;28;20446;-78
2022/02/27 03:15:28;;;;;;;4.07;1.53;;;6.40;10.90;;;;;;5087364;28;20440;-78
2022/02/27 03:17:57;;;;;;;9.37;2.13;;;6.50;11.50;;;;;;5083389;28;20442;-78
2022/02/27 03:20:25;;;;;;;1.77;1.17;;;6.50;11.40;;;;;;5085408;28;20576;-79
2022/02/27 03:22:53;;;;;;;3.27;1.83;;;6.40;12.50;;;;;;5084501;28;20454;-80
2022/02/27 03:25:22;;;;;;;3.27;1.20;;;6.50;12.80;;;;;;5082654;28;20546;-78
2022/02/27 03:27:50;;;;;;;3.77;1.30;;;6.40;11.70;;;;;;5080916;28;20462;-79
2022/02/27 03:30:20;;;;;;;1.67;1.33;;;6.40;11.00;;;;;;5082751;28;20442;-79
2022/02/27 03:32:48;;;;;;;2.17;1.70;;;6.80;13.30;;;;;;5083230;28;20450;-79
2022/02/27 03:35:18;;;;;;;5.23;1.77;;;6.40;12.70;;;;;;5081070;28;20469;-79
2022/02/27 03:37:49;;;;;;;5.53;1.80;;;6.40;12.50;;;;;;5082628;28;20475;-78
2022/02/27 03:40:18;;;;;;;6.33;1.70;;;6.40;23.20;;;;;;5079618;28;20430;-78
2022/02/27 03:42:46;;;;;;;2.93;1.93;;;6.50;12.60;;;;;;5083542;28;20458;-78
2022/02/27 03:45:16;;;;;;;5.73;1.60;;;6.50;12.60;;;;;;5081262;28;20480;-77
2022/02/27 03:47:46;;;;;;;7.77;1.30;;;6.30;13.60;;;;;;5083087;28;20486;-79
2022/02/27 03:50:17;;;;;;;4.00;1.30;;;6.30;13.00;;;;;;5090382;28;20450;-78
2022/02/27 03:52:45;;;;;;;3.27;1.30;;;6.20;12.60;;;;;;5079879;28;20449;-78
2022/02/27 03:55:15;;;;;;;2.33;1.70;;;6.30;14.50;;;;;;5082407;28;20465;-79
2022/02/27 03:57:44;;;;;;;4.33;1.57;;;6.30;13.70;;;;;;5081837;28;20514;-79
2022/02/27 04:00:15;;;;;;;3.70;1.57;;;6.20;14.50;;;;;;5084377;28;20447;-79
2022/02/27 04:02:46;;;;;;;2.03;1.87;;;6.10;12.70;;;;;;5090354;28;20449;-78
2022/02/27 04:05:16;;;;;;;3.03;1.70;;;6.10;14.20;;;;;;5081670;28;20516;-78
2022/02/27 04:07:44;;;;;;;2.67;1.60;;;6.40;13.60;;;;;;5081062;28;20461;-78
2022/02/27 04:10:13;;;;;;;3.83;1.93;;;6.20;15.40;;;;;;5088587;28;20453;-77
2022/02/27 04:12:41;;;;;;;5.20;1.67;;;6.20;15.00;;;;;;5090010;28;20929;-77
2022/02/27 04:15:11;;;;;;;2.90;1.40;;;6.10;16.00;;;;;;5093461;28;21028;-78
2022/02/27 04:17:39;;;;;;;1.40;1.30;;;6.10;14.50;;;;;;5087232;28;20458;-77
2022/02/27 04:20:10;;;;;;;2.20;1.60;;;6.00;15.50;;;;;;5081862;28;20977;-78
2022/02/27 04:22:38;;;;;;;3.90;1.87;;;6.10;15.10;;;;;;5089792;28;20446;-78
2022/02/27 04:25:07;;;;;;;3.10;1.50;;;6.10;16.40;;;;;;5086275;28;20472;-78
2022/02/27 04:27:35;;;;;;;2.30;1.73;;;6.10;15.70;;;;;;5086284;28;20501;-78
2022/02/27 04:30:04;;;;;;;5.23;1.47;;;6.10;17.20;;;;;;5090480;28;20461;-79
2022/02/27 04:32:33;;;;;;;3.37;1.70;;;6.10;16.00;;;;;;5090330;28;20744;-78
2022/02/27 04:35:01;;;;;;;2.17;1.97;;;6.10;17.30;;;;;;5085678;28;20541;-77
2022/02/27 04:37:30;;;;;;;4.40;1.67;;;6.10;17.80;;;;;;5080614;28;20507;-77
2022/02/27 04:39:59;;;;;;;2.60;1.63;;;6.10;18.30;;;;;;5080393;28;20454;-77
2022/02/27 04:42:27;;;;;;;2.57;1.50;;;6.10;17.90;;;;;;5080698;28;20471;-78
2022/02/27 04:44:55;;;;;;;1.70;1.60;;;6.20;17.60;;;;;;5084184;28;20846;-78
2022/02/27 04:47:23;;;;;;;4.27;2.03;;;6.10;18.80;;;;;;5084971;28;20442;-77
2022/02/27 04:49:52;;;;;;;5.37;1.77;;;6.10;18.10;;;;;;5080900;28;20459;-79
2022/02/27 04:52:20;;;;;;;4.33;2.30;;;6.00;19.00;;;;;;5086828;28;20472;-79
2022/02/27 04:54:49;;;;;;;2.63;1.80;;;6.10;19.70;;;;;;5089799;28;20454;-78
2022/02/27 04:57:18;;;;;;;2.30;1.90;;;6.10;20.30;;;;;;5086325;28;20978;-78
2022/02/27 04:59:46;;;;;;;4.80;3.00;;;6.00;20.40;;;;;;5083183;28;20510;-77
2022/02/27 05:02:15;;;;;;;5.60;1.73;;;6.00;20.40;;;;;;5078959;28;21060;-79
2022/02/27 05:04:43;;;;;;;6.60;1.67;;;6.10;20.40;;;;;;5082230;28;20476;-77
2022/02/27 05:07:11;;;;;;;2.67;2.23;;;5.90;21.20;;;;;;5082377;28;21226;-79
2022/02/27 05:09:40;;;;;;;5.60;1.80;;;6.10;21.70;;;;;;5081351;28;20522;-78
2022/02/27 05:12:10;;;;;;;3.60;1.93;;;5.90;22.30;;;;;;5084046;28;20561;-78
2022/02/27 05:14:40;;;;;;;2.30;1.47;;;6.00;22.80;;;;;;5089389;28;20476;-78
2022/02/27 05:17:28;;;;;;;4.50;1.80;;;6.00;23.10;;;;;;5087409;28;20446;-78
2022/02/27 05:19:56;;;;;;;4.53;1.63;;;6.00;22.90;;;;;;5084490;28;20830;-78
2022/02/27 05:22:24;;;;;;;6.53;2.33;;;5.90;23.90;;;;;;5087832;28;20461;-78
2022/02/27 05:24:53;;;;;;;2.53;1.40;;;6.40;25.40;;;;;;5086056;28;20508;-79
2022/02/27 05:27:22;;;;;;;2.30;1.83;;;6.00;24.30;;;;;;5078840;28;20462;-79
2022/02/27 05:29:51;;;;;;;5.40;2.20;;;6.00;24.50;;;;;;5088595;28;20470;-77
2022/02/27 05:32:19;;;;;;;5.70;1.90;;;6.20;24.00;;;;;;5086067;28;20453;-77
2022/02/27 05:34:47;;;;;;;4.57;2.13;;;5.90;26.30;;;;;;5083970;28;20472;-79
2022/02/27 05:37:20;;;;;;;4.17;2.23;;;5.90;26.10;;;;;;5080088;28;20462;-79
2022/02/27 05:39:48;;;;;;;3.30;2.00;;;6.20;27.60;;;;;;5083220;28;20445;-79
2022/02/27 05:42:17;;;;;;;4.10;2.07;;;5.90;26.00;;;;;;5086708;28;20453;-79
2022/02/27 05:44:47;;;;;;;3.73;2.43;;;5.90;25.60;;;;;;5083143;28;20558;-78
2022/02/27 05:47:15;;;;;;;2.30;2.10;;;5.90;26.50;;;;;;5081965;28;20451;-79
2022/02/27 05:49:43;;;;;;;3.80;2.40;;;5.90;27.10;;;;;;5085399;28;20477;-79
2022/02/27 05:52:12;;;;;;;3.10;2.27;;;6.00;27.00;;;;;;5087570;28;20513;-79
2022/02/27 05:54:40;;;;;;;5.03;2.10;;;6.20;27.70;;;;;;5085874;28;20473;-79
2022/02/27 05:57:08;;;;;;;6.13;3.90;;;6.00;28.20;;;;;;5083828;28;20989;-79
2022/02/27 05:59:37;;;;;;;2.40;2.20;;;6.00;27.30;;;;;;5084841;28;20484;-79
2022/02/27 06:02:07;;;;;;;5.17;1.97;;;6.00;26.80;;;;;;5080226;28;20969;-78
2022/02/27 06:04:35;;;;;;;5.57;2.53;;;5.90;26.60;;;;;;5084185;28;21489;-79
2022/02/27 06:07:04;;;;;;;8.20;2.80;;;6.10;29.00;;;;;;5088771;28;21134;-79
2022/02/27 06:09:32;;;;;;;6.07;1.97;;;5.90;28.50;;;;;;5087768;28;21004;-79
2022/02/27 06:12:00;;;;;;;4.53;3.10;;;6.00;28.00;;;;;;5088740;28;20440;-79
2022/02/27 06:14:28;;;;;;;4.33;2.60;;;6.20;28.40;;;;;;5089495;28;20216;-78
2022/02/27 06:16:58;;;;;;;3.77;1.77;;;6.20;28.20;;;;;;5084319;28;20491;-78
2022/02/27 06:19:27;;;;;;;3.53;2.10;;;5.90;28.40;;;;;;5079285;28;20504;-78
2022/02/27 06:21:55;;;;;;;3.83;2.43;;;5.90;28.50;;;;;;5084592;28;20199;-77
2022/02/27 06:24:24;;;;;;;4.07;2.13;;;5.90;28.70;;;;;;5083235;28;20468;-77
2022/02/27 06:26:52;;;;;;;5.20;2.00;;;5.80;28.60;;;;;;5079488;28;20474;-77
2022/02/27 06:29:20;;;;;;;2.50;2.13;;;5.80;29.10;;;;;;5082568;28;20477;-78
2022/02/27 06:31:48;;;;;;;3.73;2.37;;;5.80;29.50;;;;;;5087584;28;20714;-78
2022/02/27 06:34:16;;;;;;;3.90;2.40;;;5.80;29.50;;;;;;5081189;28;20473;-78
2022/02/27 06:36:46;;;;;;;2.80;1.70;;;5.90;29.70;;;;;;5088576;28;20482;-78
2022/02/27 06:39:14;;;;;;;2.53;2.00;;;5.80;29.60;;;;;;5082852;28;20454;-77
2022/02/27 06:41:42;;;;;;;5.50;2.67;;;6.20;30.40;;;;;;5077672;28;20207;-77
2022/02/27 06:44:10;;;;;;;5.97;1.90;;;5.90;30.70;;;;;;5078770;28;20454;-78
2022/02/27 06:46:38;;;;;;;6.77;2.20;;;5.90;31.40;;;;;;5077826;28;21075;-77
2022/02/27 06:49:08;;;;;;;3.20;2.20;;;5.90;30.00;;;;;;5075276;28;20474;-78
2022/02/27 06:51:37;;;;;;;2.80;2.33;;;5.90;29.80;;;;;;5090583;28;21254;-78
2022/02/27 06:54:06;;;;;;;4.40;2.95;;;5.90;30.00;;;;;;5085501;28;20477;-78
2022/02/27 06:56:34;;;;;;;10.37;3.00;;;5.90;32.10;;;;;;5087979;28;20204;-79
2022/02/27 06:59:02;;;;;;;3.00;2.30;;;5.90;31.40;;;;;;5074855;28;20454;-78
2022/02/27 07:01:31;;;;;;;3.17;2.27;;;6.00;31.30;;;;;;5075042;28;20458;-78
2022/02/27 07:03:59;;;;;;;2.17;1.77;;;6.00;46.30;;;;;;5077947;28;20495;-78
2022/02/27 07:06:27;;;;;;;3.30;2.20;;;5.90;30.70;;;;;;5079873;28;20980;-79
2022/02/27 07:08:55;;;;;;;2.40;2.20;;;5.80;31.70;;;;;;5077945;28;21028;-78
2022/02/27 07:11:25;;;;;;;3.47;2.30;;;5.90;34.30;;;;;;5077805;28;20465;-79
2022/02/27 07:13:53;;;;;;;4.23;2.33;;;5.90;33.50;;;;;;5079304;28;21007;-77
2022/02/27 07:16:23;;;;;;;6.10;3.97;;;5.80;34.30;;;;;;5082200;28;20446;-79
2022/02/27 07:18:53;;;;;;;5.23;2.33;;;5.90;36.10;;;;;;5086133;28;20454;-78
2022/02/27 07:21:21;;;;;;;5.33;2.67;;;6.00;36.40;;;;;;5092942;28;20446;-79
2022/02/27 07:23:49;;;;;;;3.57;2.17;;;6.10;36.50;;;;;;5085190;28;20469;-79
2022/02/27 07:26:18;;;;;;;4.13;2.00;;;6.20;36.70;;;;;;5094885;28;20458;-79
2022/02/27 07:28:48;;;;;;;5.07;2.87;;;6.20;36.30;;;;;;5093945;28;20537;-79
2022/02/27 07:31:16;;;;;;;4.73;3.33;;;6.60;37.40;;;;;;5088261;28;20531;-79
2022/02/27 07:33:49;;;;;;;6.43;2.80;;;6.40;35.90;;;;;;5086679;28;20897;-79
2022/02/27 07:36:18;;;;;;;7.20;2.80;;;6.40;33.60;;;;;;5087938;28;20497;-79
2022/02/27 07:38:47;;;;;;;7.10;3.33;;;6.30;34.80;;;;;;5087685;28;20485;-79
2022/02/27 07:41:15;;;;;;;3.83;3.40;;;6.20;33.70;;;;;;5086488;28;20474;-78
2022/02/27 07:43:43;;;;;;;4.40;2.90;;;6.20;33.20;;;;;;5082828;28;20474;-79
2022/02/27 07:46:13;;;;;;;5.10;3.57;;;6.20;32.50;;;;;;5089404;28;20446;-79
2022/02/27 07:48:42;;;;;;;3.33;2.30;;;6.20;32.60;;;;;;5089038;28;20867;-79
2022/02/27 07:51:10;;;;;;;4.00;2.73;;;6.20;33.50;;;;;;5076856;28;20568;-79
2022/02/27 07:53:38;;;;;;;7.90;3.30;;;6.10;34.40;;;;;;5085906;28;20452;-79
2022/02/27 07:56:06;;;;;;;6.27;3.10;;;6.20;37.70;;;;;;5083560;28;20546;-79
2022/02/27 07:58:35;;;;;;;4.10;2.87;;;6.20;40.50;;;;;;5076743;28;20449;-79
2022/02/27 08:01:03;;;;;;;3.40;2.53;;;6.40;36.70;;;;;;5082011;28;20450;-79
2022/02/27 08:03:34;;;;;;;7.77;3.63;;;6.50;36.50;;;;;;5085065;28;20484;-79
2022/02/27 08:06:02;;;;;;;3.83;2.77;;;6.70;36.90;;;;;;5079227;28;20450;-78
2022/02/27 08:08:34;;;;;;;3.70;2.30;;;6.90;37.40;;;;;;5079860;28;20466;-79
2022/02/27 08:11:02;;;;;;;2.80;2.43;;;7.10;38.90;;;;;;5087146;28;20477;-78
2022/02/27 08:13:31;;;;;;;4.37;3.03;;;7.30;37.00;;;;;;5084893;28;20832;-78
2022/02/27 08:16:00;;;;;;;4.60;2.83;;;7.50;40.70;;;;;;5089032;28;21344;-79
2022/02/27 08:18:29;;;;;;;3.23;2.20;;;7.70;38.00;;;;;;5086316;28;20490;-78
2022/02/27 08:20:59;;;;;;;5.40;2.90;;;7.90;37.90;;;;;;5087421;28;20624;-77
2022/02/27 08:23:27;;;;;;;6.27;3.77;;;8.10;39.50;;;;;;5087497;28;20495;-79
2022/02/27 08:25:59;;;;;;;3.13;2.73;;;8.50;35.80;;;;;;5085666;28;20463;-80
2022/02/27 08:28:29;;;;;;;3.47;2.80;;;8.40;37.00;;;;;;5080866;28;20457;-79
2022/02/27 08:30:58;;;;;;;4.50;3.10;;;8.50;36.50;;;;;;5080504;28;20555;-81
2022/02/27 08:33:27;;;;;;;5.97;2.80;;;8.60;36.40;;;;;;5077368;28;20478;-79
2022/02/27 08:35:56;;;;;;;2.73;2.53;;;8.50;36.00;;;;;;5081406;28;20449;-79
2022/02/27 08:38:26;;;;;;;4.27;3.60;;;8.50;30.70;;;;;;5082002;28;20471;-79
2022/02/27 08:40:56;;;;;;;4.47;2.90;;;8.60;29.80;;;;;;5082783;28;20437;-78
2022/02/27 08:43:24;;;;;;;2.50;2.30;;;8.60;29.10;;;;;;5079081;28;20571;-79
2022/02/27 08:45:53;;;;;;;5.00;2.50;;;8.60;30.60;;;;;;5081821;28;20460;-79
2022/02/27 08:48:22;;;;;;;4.43;3.20;;;8.80;32.20;;;;;;5082416;28;20199;-79
2022/02/27 08:50:51;;;;;;;3.60;2.30;;;8.80;29.40;;;;;;5082367;28;20949;-79
2022/02/27 08:53:19;;;;;;;2.87;2.10;;;8.90;29.60;;;;;;5080500;28;20479;-80
2022/02/27 08:55:49;;;;;;;5.77;3.50;;;9.00;31.90;;;;;;5081720;28;20494;-80
2022/02/27 08:58:18;;;;;;;5.10;3.47;;;9.10;30.60;;;;;;5079646;28;21000;-80
2022/02/27 09:00:46;;;;;;;7.07;2.77;;;9.10;46.40;;;;;;5079735;28;20452;-80
2022/02/27 09:03:15;;;;;;;6.90;2.57;;;9.20;30.90;;;;;;5071691;28;21134;-79
2022/02/27 09:05:46;;;;;;;7.23;2.57;;;9.30;31.10;;;;;;5079523;28;20468;-80
2022/02/27 09:08:14;;;;;;;6.40;5.30;;;9.30;30.80;;;;;;5076618;28;20602;-81
2022/02/27 09:10:42;;;;;;;3.87;2.40;;;9.40;31.10;;;;;;5078421;28;20466;-80
2022/02/27 09:13:12;;;;;;;3.10;2.30;;;9.50;31.60;;;;;;5079528;28;20575;-80
2022/02/27 09:15:40;;;;;;;3.17;2.63;;;9.70;31.10;;;;;;5075531;28;20434;-81
2022/02/27 09:18:13;;;;;;;2.77;2.00;;;9.80;33.10;;;;;;5072628;28;20813;-80
2022/02/27 09:20:41;;;;;;;2.90;2.40;;;10.00;33.00;;;;;;5073718;28;20845;-80
2022/02/27 09:23:09;;;;;;;4.70;2.43;;;10.10;31.80;;;;;;5076876;28;20962;-81
2022/02/27 09:25:38;;;;;;;4.80;3.30;;;10.00;29.40;;;;;;5078025;28;20447;-81
2022/02/27 09:28:28;;;;;;;4.20;2.33;;;10.30;33.40;;;;;;5071468;28;20509;-80
2022/02/27 09:30:56;;;;;;;3.17;2.17;;;10.40;33.90;;;;;;5077237;28;20477;-81
2022/02/27 09:33:25;;;;;;;4.47;2.20;;;10.50;31.40;;;;;;5078145;28;20569;-82
2022/02/27 09:35:54;;;;;;;2.93;1.73;;;10.70;29.50;;;;;;5074364;28;20445;-81
2022/02/27 09:38:22;;;;;;;3.40;2.33;;;10.70;28.70;;;;;;5082895;28;20457;-81
2022/02/27 09:40:50;;;;;;;3.27;2.33;;;10.70;26.70;;;;;;5083569;28;20448;-81
2022/02/27 09:43:20;;;;;;;2.30;1.60;;;10.80;25.70;;;;;;5074405;28;20445;-81
2022/02/27 09:45:50;;;;;;;2.00;1.67;;;10.80;26.50;;;;;;5074908;28;20462;-80
2022/02/27 09:48:19;;;;;;;2.60;1.70;;;11.00;28.00;;;;;;5076982;28;21124;-80
2022/02/27 09:50:49;;;;;;;1.93;1.27;;;11.00;24.00;;;;;;5081515;28;20228;-80
2022/02/27 09:53:18;;;;;;;1.95;1.60;;;11.10;22.50;;;;;;5081162;28;20448;-81
2022/02/27 09:55:47;;;;;;;3.43;1.63;;;11.30;22.50;;;;;;5084192;28;20744;-81
2022/02/27 09:58:15;;;;;;;1.87;1.30;;;11.20;21.10;;;;;;5076669;28;20478;-80
2022/02/27 10:00:44;;;;;;;1.73;1.60;;;11.20;21.40;;;;;;5081801;28;20436;-80
2022/02/27 10:03:15;;;;;;;1.90;1.23;;;11.30;21.60;;;;;;5078681;28;20456;-79
2022/02/27 10:05:45;;;;;;;2.53;1.50;;;11.40;21.00;;;;;;5087048;28;20447;-80
2022/02/27 10:08:14;;;;;;;2.10;1.70;;;11.40;19.20;;;;;;5089136;28;20448;-80
2022/02/27 10:10:55;;;;;;;4.40;1.70;;;11.50;20.10;;;;;;5084987;28;20492;-80
2022/02/27 10:13:37;;;;;;;2.60;1.50;;;11.80;20.10;;;;;;5077810;28;20475;-80
2022/02/27 10:16:08;;;;;;;2.30;1.60;;;11.70;18.90;;;;;;5081749;28;20464;-80
2022/02/27 10:18:43;;;;;;;1.60;1.50;;;11.70;18.60;;;;;;5077630;28;20471;-79
2022/02/27 10:21:23;;;;;;;3.27;2.10;;;11.50;14.50;;;;;;5081007;28;20483;-81
2022/02/27 10:24:12;;;;;;;2.23;1.30;;;11.30;12.20;;;;;;5083291;28;20557;-80
2022/02/27 10:26:42;;;;;;;1.70;1.40;;;11.10;10.90;;;;;;5078210;28;20454;-79
2022/02/27 10:29:12;;;;;;;1.93;1.57;;;11.10;12.00;;;;;;5071161;28;20525;-80
2022/02/27 10:31:42;;;;;;;1.90;1.53;;;10.90;11.00;;;;;;5076608;28;20520;-80
2022/02/27 10:34:17;;;;;;;5.70;2.10;;;11.20;13.60;;;;;;5078247;28;20475;-80
2022/02/27 10:36:57;;;;;;;1.83;1.40;;;11.70;17.50;;;;;;5076882;28;20460;-82
2022/02/27 10:39:30;;;;;;;1.70;1.60;;;12.00;19.00;;;;;;5074155;28;20495;-80
2022/02/27 10:42:25;;;;;;;2.80;1.77;;;12.40;20.70;;;;;;5080621;28;20475;-80
2022/02/27 10:44:54;;;;;;;4.37;1.60;;;12.50;20.30;;;;;;5073492;28;20492;-79
2022/02/27 10:47:24;;;;;;;3.97;2.10;;;12.60;21.90;;;;;;5080100;28;20450;-81
2022/02/27 10:49:56;;;;;;;2.43;2.23;;;12.80;22.10;;;;;;5080543;28;20475;-79
2022/02/27 10:52:26;;;;;;;2.27;2.07;;;13.10;24.60;;;;;;5080111;28;20478;-80
2022/02/27 10:54:55;;;;;;;2.33;1.57;;;13.50;26.50;;;;;;5082451;28;20471;-79
2022/02/27 10:57:29;;;;;;;2.37;1.63;;;13.70;27.40;;;;;;5084442;28;22171;-80
2022/02/27 11:00:05;;;;;;;1.37;1.10;;;14.00;27.80;;;;;;5086336;28;20448;-80
2022/02/27 11:02:34;;;;;;;1.40;1.30;;;14.20;27.80;;;;;;5082388;28;20446;-80
2022/02/27 11:05:10;;;;;;;3.30;1.40;;;14.30;27.80;;;;;;5086671;28;20476;-81
2022/02/27 11:07:40;;;;;;;2.70;1.27;;;14.30;26.60;;;;;;5086605;28;20945;-80
2022/02/27 11:10:10;;;;;;;1.50;1.40;;;14.70;28.30;;;;;;5087962;28;20457;-82
2022/02/27 11:12:39;;;;;;;1.40;1.30;;;14.90;28.40;;;;;;5084020;28;20485;-81
2022/02/27 11:15:10;;;;;;;2.40;1.50;;;15.00;28.90;;;;;;5080870;28;20477;-81
2022/02/27 11:17:38;;;;;;;1.73;1.20;;;15.00;28.30;;;;;;5086040;28;20433;-81
2022/02/27 11:20:09;;;;;;;1.90;1.60;;;15.40;32.90;;;;;;5086359;28;20453;-80
2022/02/27 11:22:39;;;;;;;1.73;1.20;;;15.60;31.00;;;;;;5087897;28;20469;-80
2022/02/27 11:25:09;;;;;;;2.00;1.40;;;15.70;30.90;;;;;;5086816;28;20980;-80
2022/02/27 11:27:41;;;;;;;2.07;1.40;;;15.80;31.70;;;;;;5086556;28;20457;-80
2022/02/27 11:30:11;;;;;;;1.40;1.25;;;15.90;30.10;;;;;;5084992;28;20927;-80
2022/02/27 11:32:49;;;;;;;1.80;1.50;;;16.30;33.40;;;;;;5087948;28;20233;-81
2022/02/27 11:35:43;;;;;;;1.77;1.60;;;16.40;34.00;;;;;;5084451;28;20453;-80
2022/02/27 11:38:13;;;;;;;1.40;1.30;;;16.10;29.60;;;;;;5085952;28;20478;-81
2022/02/27 11:40:48;;;;;;;1.83;1.73;;;15.70;27.20;;;;;;5087429;28;20457;-81
2022/02/27 11:43:39;;;;;;;2.10;1.63;;;15.30;22.60;;;;;;5083036;28;20455;-81
2022/02/27 11:46:08;;;;;;;1.60;1.43;;;14.90;18.80;;;;;;5089403;28;20468;-81
2022/02/27 11:49:07;;;;;;;4.30;1.77;;;14.50;16.80;;;;;;5085117;28;20504;-83
2022/02/27 11:51:51;;;;;;;1.97;1.53;;;14.00;13.90;;;;;;5080655;28;20785;-83
2022/02/27 11:54:22;;;;;;;1.60;1.50;;;13.40;7.90;;;;;;5087581;28;20499;-83
2022/02/27 11:57:13;;;;;;;2.90;1.90;;;13.20;8.50;;;;;;5081649;28;20497;-79
2022/02/27 12:00:06;;;;;;;2.50;1.93;;;13.10;5.10;;;;;;5079507;28;20255;-80
2022/02/27 12:02:38;;;;;;;2.37;1.83;;;13.00;4.80;;;;;;5081445;28;20457;-79
2022/02/27 12:05:09;;;;;;;2.83;1.70;;;13.00;6.10;;;;;;5085443;28;21164;-80
2022/02/27 12:08:10;;;;;;;2.37;2.17;;;13.00;5.40;;;;;;5083693;28;20551;-80
2022/02/27 12:10:42;;;;;;;2.20;1.90;;;12.80;2.70;;;;;;5085469;28;20440;-79
2022/02/27 12:13:34;;;;;;;1.60;1.50;;;12.80;4.00;;;;;;5086737;28;20765;-80
2022/02/27 12:16:10;;;;;;;2.70;1.73;;;12.50;1.60;;;;;;5065199;28;20463;-80
2022/02/27 12:18:52;;;;;;;3.53;1.73;;;12.20;1.00;;;;;;5082387;28;20555;-80
2022/02/27 12:21:37;;;;;;;3.90;1.57;;;12.00;1.00;;;;;;5086068;28;20468;-81
2022/02/27 12:24:14;;;;;;;1.70;1.60;;;11.90;1.00;;;;;;5081991;28;20486;-81
2022/02/27 12:26:47;;;;;;;1.87;1.60;;;11.70;1.00;;;;;;5083013;28;20457;-81
2022/02/27 12:29:35;;;;;;;4.70;2.13;;;11.70;1.00;;;;;;5085637;28;20477;-80
2022/02/27 12:32:18;;;;;;;2.70;1.60;;;11.80;1.00;;;;;;5086192;28;20494;-80
2022/02/27 12:34:49;;;;;;;2.33;1.50;;;11.90;1.00;;;;;;5087443;28;20481;-79
2022/02/27 12:37:19;;;;;;;2.70;1.93;;;11.70;1.00;;;;;;5085929;28;20946;-80
2022/02/27 12:39:52;;;;;;;3.00;1.85;;;11.60;1.00;;;;;;5087228;28;20819;-79
2022/02/27 12:42:23;;;;;;;1.60;1.50;;;11.60;1.00;;;;;;5082707;28;20222;-81
2022/02/27 12:44:53;;;;;;;5.13;1.83;;;11.90;1.00;;;;;;5088071;28;20479;-77
2022/02/27 12:47:23;;;;;;;2.27;1.50;;;11.80;1.00;;;;;;5084849;28;20457;-80
2022/02/27 12:50:20;;;;;;;2.43;1.53;;;11.80;1.00;;;;;;5083570;28;20469;-79
2022/02/27 12:52:49;;;;;;;1.50;1.40;;;11.90;1.00;;;;;;5082042;28;20482;-80
2022/02/27 12:55:21;;;;;;;2.83;1.87;;;12.00;1.00;;;;;;5088754;28;20479;-80
2022/02/27 12:57:51;;;;;;;2.37;1.73;;;12.20;1.00;;;;;;5086150;28;20463;-80
2022/02/27 13:00:24;;;;;;;1.50;1.40;;;12.30;1.70;;;;;;5081745;28;20451;-81
2022/02/27 13:02:55;;;;;;;2.40;1.40;;;12.40;3.60;;;;;;5087147;28;20521;-80
2022/02/27 13:05:24;;;;;;;2.70;1.40;;;12.60;4.70;;;;;;5083010;28;20470;-80
2022/02/27 13:08:02;;;;;;;2.03;1.40;;;12.70;4.50;;;;;;5084182;28;20571;-79
2022/02/27 13:10:36;;;;;;;2.03;1.63;;;12.60;3.60;;;;;;5080414;28;20456;-81
2022/02/27 13:13:10;;;;;;;1.90;1.80;;;12.60;3.20;;;;;;5081997;28;22762;-80
2022/02/27 13:15:47;;;;;;;1.67;1.57;;;12.70;5.10;;;;;;5080925;28;20564;-79